Time;durP1;ratioP1;P1;durP2;ratioP2;P2;SDS_P1;SDS_P2;PMS_P1;PMS_P2;Temp;Humidity;BMP_temperature;BMP_pressure;BME280_temperature;BME280_humidity;BME280_pressure;Samples;Min_cycle;Max_cycle;Signal;HPM_P1;HPM_P2
2022/01/29 00:00:36;;;;;;;4.82;2.92;;;;;;;13.45;35.07;97839.66;5134592;27;20375;-30
2022/01/29 00:03:01;;;;;;;4.05;2.40;;;;;;;13.57;35.09;97839.09;5134536;27;20031;-30
2022/01/29 00:05:27;;;;;;;4.82;2.80;;;;;;;13.61;34.91;97845.25;5134420;27;20027;-31
2022/01/29 00:07:52;;;;;;;5.10;2.55;;;;;;;13.63;34.80;97843.66;5134305;27;20031;-31
2022/01/29 00:10:18;;;;;;;5.03;3.17;;;;;;;13.63;34.71;97837.44;5134618;27;20034;-31
2022/01/29 00:12:43;;;;;;;3.72;2.55;;;;;;;13.57;34.97;97848.03;5134412;27;20015;-30
2022/01/29 00:15:10;;;;;;;5.75;3.17;;;;;;;13.63;34.93;97845.59;5134245;27;20084;-32
2022/01/29 00:17:35;;;;;;;5.18;3.08;;;;;;;13.51;35.38;97836.03;5134117;27;20050;-31
2022/01/29 00:20:01;;;;;;;5.25;2.80;;;;;;;13.59;35.03;97836.72;5134257;27;20027;-31
2022/01/29 00:22:27;;;;;;;5.65;3.35;;;;;;;13.65;34.94;97840.53;5134247;27;20047;-31
2022/01/29 00:24:52;;;;;;;5.32;3.33;;;;;;;13.69;34.79;97832.28;5134153;27;20023;-31
2022/01/29 00:27:20;;;;;;;5.32;3.00;;;;;;;13.59;34.72;97845.69;5134008;27;20383;-30
2022/01/29 00:29:46;;;;;;;5.47;2.92;;;;;;;13.55;34.75;97847.69;5134192;27;20425;-31
2022/01/29 00:32:12;;;;;;;6.00;3.17;;;;;;;13.64;34.75;97844.44;5134299;27;20015;-31
2022/01/29 00:34:40;;;;;;;5.80;3.20;;;;;;;13.58;34.61;97846.88;5133922;27;20387;-31
2022/01/29 00:37:06;;;;;;;5.47;3.30;;;;;;;13.63;34.70;97842.88;5134091;27;20031;-31
2022/01/29 00:39:31;;;;;;;5.32;3.28;;;;;;;13.60;34.68;97832.78;5134053;27;20125;-30
2022/01/29 00:41:57;;;;;;;4.55;2.85;;;;;;;13.56;34.50;97841.03;5134136;27;20473;-33
2022/01/29 00:44:22;;;;;;;5.50;2.85;;;;;;;13.59;35.02;97832.06;5133952;27;20378;-31
2022/01/29 00:46:48;;;;;;;6.40;3.08;;;;;;;13.64;34.65;97836.25;5133996;27;20054;-31
2022/01/29 00:49:14;;;;;;;5.75;2.90;;;;;;;13.56;35.08;97834.81;5133917;27;20034;-31
2022/01/29 00:51:40;;;;;;;6.43;3.10;;;;;;;13.58;35.01;97840.63;5133904;27;20023;-31
2022/01/29 00:54:07;;;;;;;4.95;2.72;;;;;;;13.57;35.14;97847.28;5134049;27;20371;-31
2022/01/29 00:56:32;;;;;;;6.22;3.10;;;;;;;13.61;34.86;97840.56;5134561;27;20364;-31
2022/01/29 00:58:58;;;;;;;4.85;3.17;;;;;;;13.54;34.99;97845.34;5138112;27;20041;-31
2022/01/29 01:01:24;;;;;;;5.22;2.90;;;;;;;13.59;34.60;97851.13;5138123;27;20033;-31
2022/01/29 01:03:49;;;;;;;5.82;3.05;;;;;;;13.60;35.12;97847.19;5137863;27;20094;-31
2022/01/29 01:06:15;;;;;;;6.13;3.38;;;;;;;13.59;34.78;97858.53;5137738;27;20476;-31
2022/01/29 01:08:40;;;;;;;5.05;3.20;;;;;;;13.55;35.12;97860.53;5137779;27;20364;-31
2022/01/29 01:11:06;;;;;;;6.47;3.00;;;;;;;13.56;34.66;97843.00;5137827;27;20475;-31
2022/01/29 01:13:32;;;;;;;6.32;3.03;;;;;;;13.55;34.67;97849.63;5119149;27;20019;-31
2022/01/29 01:15:58;;;;;;;5.65;3.03;;;;;;;13.59;34.59;97850.34;5119270;27;20033;-30
2022/01/29 01:18:24;;;;;;;4.70;2.83;;;;;;;13.56;34.71;97857.41;5137414;27;20035;-31
2022/01/29 01:20:49;;;;;;;4.45;2.92;;;;;;;13.46;35.18;97863.00;5137471;27;20111;-31
2022/01/29 01:23:15;;;;;;;5.65;3.20;;;;;;;13.52;34.88;97856.66;5137712;27;20019;-31
2022/01/29 01:25:40;;;;;;;4.47;2.97;;;;;;;13.44;34.96;97847.06;5119008;27;20019;-31
2022/01/29 01:28:06;;;;;;;6.10;3.10;;;;;;;13.46;35.01;97854.81;5137267;27;20027;-31
2022/01/29 01:30:32;;;;;;;7.38;2.88;;;;;;;13.49;34.76;97843.09;5137808;27;20528;-31
2022/01/29 01:33:01;;;;;;;5.38;3.20;;;;;;;13.48;34.93;97847.00;5137443;27;20421;-31
2022/01/29 01:35:33;;;;;;;5.25;2.90;;;;;;;13.46;34.97;97843.94;5137383;27;20023;-31
2022/01/29 01:38:08;;;;;;;5.38;3.17;;;;;;;13.50;35.17;97850.06;5137206;27;20030;-31
2022/01/29 01:40:34;;;;;;;6.70;3.45;;;;;;;13.48;34.90;97852.44;5137411;27;20026;-31
2022/01/29 01:43:01;;;;;;;5.75;3.65;;;;;;;13.47;34.88;97843.53;5137222;27;20029;-31
2022/01/29 01:45:28;;;;;;;4.00;2.50;;;;;;;13.46;35.13;97838.47;5137391;27;20019;-31
2022/01/29 01:47:54;;;;;;;5.65;3.35;;;;;;;13.50;34.56;97844.63;5136958;27;20019;-31
2022/01/29 01:50:21;;;;;;;5.70;3.28;;;;;;;13.49;34.73;97851.25;5137173;27;20450;-31
2022/01/29 01:52:48;;;;;;;4.80;2.92;;;;;;;13.45;34.91;97850.56;5136903;27;20451;-31
2022/01/29 01:55:14;;;;;;;5.30;3.03;;;;;;;13.43;34.93;97834.59;5136946;27;20019;-31
2022/01/29 01:57:40;;;;;;;5.07;3.13;;;;;;;13.41;35.23;97852.53;5136850;27;20016;-31
2022/01/29 02:00:06;;;;;;;6.50;3.53;;;;;;;13.50;34.70;97845.41;5136894;27;20027;-31
2022/01/29 02:02:32;;;;;;;5.18;3.28;;;;;;;13.52;34.42;97836.81;5118264;27;20080;-31
2022/01/29 02:04:57;;;;;;;5.70;3.35;;;;;;;13.44;34.68;97840.84;5136607;27;20024;-31
2022/01/29 02:07:23;;;;;;;6.57;3.55;;;;;;;13.45;35.02;97842.38;5136600;27;20015;-31
2022/01/29 02:09:48;;;;;;;6.25;3.40;;;;;;;13.49;34.89;97837.63;5135745;27;20049;-31
2022/01/29 02:12:14;;;;;;;5.97;3.00;;;;;;;13.43;34.97;97850.19;5136398;27;20019;-30
2022/01/29 02:14:40;;;;;;;5.88;3.20;;;;;;;13.35;34.80;97841.34;5136734;27;20038;-31
2022/01/29 02:17:07;;;;;;;5.43;3.50;;;;;;;13.33;34.81;97840.97;5136434;27;20019;-31
2022/01/29 02:19:33;;;;;;;6.55;3.35;;;;;;;13.37;34.75;97841.69;5136229;27;20051;-30
2022/01/29 02:21:59;;;;;;;5.97;3.28;;;;;;;13.37;34.83;97840.91;5136556;27;20026;-30
2022/01/29 02:24:25;;;;;;;5.18;3.30;;;;;;;13.46;34.86;97841.97;5136412;27;20103;-32
2022/01/29 02:26:51;;;;;;;6.68;3.33;;;;;;;13.41;34.69;97838.91;5136161;27;20027;-31
2022/01/29 02:29:18;;;;;;;5.43;3.38;;;;;;;13.36;35.15;97844.81;5136243;27;20068;-31
2022/01/29 02:31:52;;;;;;;4.70;3.40;;;;;;;13.42;34.48;97840.47;5136127;27;20035;-31
2022/01/29 02:34:18;;;;;;;5.18;3.03;;;;;;;13.35;34.58;97846.03;5136345;27;20585;-31
2022/01/29 02:36:45;;;;;;;5.63;3.13;;;;;;;13.29;34.67;97841.03;5136424;27;20106;-31
2022/01/29 02:39:11;;;;;;;6.05;3.40;;;;;;;13.37;35.03;97851.81;5136419;27;20015;-30
2022/01/29 02:41:40;;;;;;;6.40;3.92;;;;;;;13.34;34.38;97844.47;5136228;27;20062;-31
2022/01/29 02:44:06;;;;;;;6.72;3.92;;;;;;;13.34;35.00;97861.59;5136116;27;20030;-31
2022/01/29 02:46:48;;;;;;;5.88;3.55;;;;;;;13.25;34.91;97848.47;5135628;27;20021;-31
2022/01/29 02:49:15;;;;;;;5.57;3.47;;;;;;;13.35;34.77;97856.94;5135985;27;20019;-31
2022/01/29 02:51:56;;;;;;;6.70;3.83;;;;;;;13.44;34.67;97857.97;5135808;27;20409;-30
2022/01/29 02:54:23;;;;;;;6.47;3.53;;;;;;;13.45;34.47;97853.28;5135885;27;20023;-31
2022/01/29 02:56:48;;;;;;;5.40;3.38;;;;;;;13.38;34.81;97858.81;5135595;27;20098;-31
2022/01/29 02:59:14;;;;;;;5.97;3.42;;;;;;;13.35;34.57;97859.66;5135619;27;20105;-31
2022/01/29 03:01:40;;;;;;;6.20;3.38;;;;;;;13.39;34.64;97858.41;5117448;27;20090;-31
2022/01/29 03:04:06;;;;;;;5.40;3.20;;;;;;;13.43;34.60;97861.88;5135564;27;20023;-32
2022/01/29 03:06:32;;;;;;;6.93;3.92;;;;;;;13.37;34.38;97873.63;5135394;27;20027;-31
2022/01/29 03:08:58;;;;;;;6.47;3.83;;;;;;;13.30;34.56;97872.53;5135553;27;20098;-31
2022/01/29 03:11:24;;;;;;;5.97;3.70;;;;;;;13.38;34.96;97877.88;5135246;27;20030;-31
2022/01/29 03:13:50;;;;;;;6.40;3.78;;;;;;;13.38;34.32;97873.22;5135386;27;20019;-31
2022/01/29 03:16:17;;;;;;;6.55;3.97;;;;;;;13.41;34.66;97866.94;5135498;27;20459;-31
2022/01/29 03:18:42;;;;;;;6.35;4.22;;;;;;;13.39;34.62;97882.16;5135240;27;20057;-31
2022/01/29 03:21:08;;;;;;;7.32;4.00;;;;;;;13.37;34.78;97874.38;5134958;27;20027;-31
2022/01/29 03:23:33;;;;;;;8.38;4.50;;;;;;;13.35;34.52;97876.00;5135085;27;20538;-31
2022/01/29 03:26:00;;;;;;;7.03;3.67;;;;;;;13.22;34.74;97867.59;5135196;27;20023;-31
2022/01/29 03:28:26;;;;;;;7.57;4.47;;;;;;;13.17;34.87;97870.75;5134937;27;20019;-31
2022/01/29 03:30:52;;;;;;;7.45;4.40;;;;;;;13.27;34.51;97867.91;5117017;27;20467;-31
2022/01/29 03:33:17;;;;;;;7.25;4.10;;;;;;;13.34;34.79;97869.00;5135078;27;20033;-31
2022/01/29 03:35:43;;;;;;;6.95;3.70;;;;;;;13.31;34.36;97870.59;5135040;27;20538;-31
2022/01/29 03:38:08;;;;;;;5.78;4.05;;;;;;;13.36;34.69;97866.63;5134774;27;20027;-31
2022/01/29 03:40:34;;;;;;;8.25;4.30;;;;;;;13.38;34.44;97864.25;5135063;27;20357;-31
2022/01/29 03:43:04;;;;;;;9.18;4.68;;;;;;;13.37;34.46;97866.22;5134682;27;20067;-30
2022/01/29 03:45:30;;;;;;;7.90;4.40;;;;;;;13.28;34.34;97871.41;5134761;27;20102;-30
2022/01/29 03:47:55;;;;;;;7.53;4.38;;;;;;;13.24;34.88;97871.44;5134478;27;20094;-31
2022/01/29 03:50:21;;;;;;;7.35;4.57;;;;;;;13.29;34.76;97860.09;5134683;27;20023;-31
2022/01/29 03:52:46;;;;;;;7.13;3.95;;;;;;;13.35;34.75;97860.44;5134615;27;20023;-31
2022/01/29 03:55:12;;;;;;;7.38;4.05;;;;;;;13.31;34.42;97865.13;5134417;27;20023;-31
2022/01/29 03:57:37;;;;;;;8.45;3.90;;;;;;;13.39;34.47;97863.84;5134536;27;20031;-31
2022/01/29 04:00:05;;;;;;;7.38;4.10;;;;;;;13.33;34.84;97867.47;5134655;27;20044;-30
2022/01/29 04:02:30;;;;;;;8.88;4.60;;;;;;;13.29;34.78;97867.50;5134453;27;20023;-31
2022/01/29 04:04:56;;;;;;;7.82;4.22;;;;;;;13.25;34.81;97872.97;5134565;27;20498;-31
2022/01/29 04:07:22;;;;;;;9.25;4.60;;;;;;;13.20;34.66;97875.41;5134484;27;20031;-31
2022/01/29 04:09:49;;;;;;;8.00;4.90;;;;;;;13.15;34.98;97868.44;5134232;27;20387;-31
2022/01/29 04:12:15;;;;;;;10.23;4.93;;;;;;;13.29;34.85;97862.81;5134644;27;20023;-31
2022/01/29 04:14:41;;;;;;;10.13;5.10;;;;;;;13.35;34.49;97870.56;5134256;27;20027;-31
2022/01/29 04:17:07;;;;;;;7.60;4.22;;;;;;;13.18;34.82;97872.31;5134555;27;20084;-30
2022/01/29 04:19:34;;;;;;;8.25;4.88;;;;;;;13.21;34.70;97877.72;5133878;27;20047;-31
2022/01/29 04:22:00;;;;;;;9.70;5.22;;;;;;;13.17;34.88;97876.97;5134270;27;20019;-31
2022/01/29 04:24:27;;;;;;;9.40;5.13;;;;;;;13.34;34.50;97879.91;5134193;27;20075;-30
2022/01/29 04:26:53;;;;;;;9.60;5.40;;;;;;;13.28;34.99;97888.53;5133987;27;20019;-31
2022/01/29 04:29:19;;;;;;;7.97;4.40;;;;;;;13.29;34.58;97883.84;5134260;27;20027;-31
2022/01/29 04:34:20;;;;;;;8.98;4.68;;;;;;;13.30;34.37;97886.16;5134091;27;20058;-31
2022/01/29 04:36:45;;;;;;;8.45;5.15;;;;;;;13.26;34.52;97884.66;5133960;27;20060;-30
2022/01/29 04:39:11;;;;;;;8.52;5.22;;;;;;;13.32;34.81;97893.16;5134185;27;20106;-30
2022/01/29 04:41:36;;;;;;;9.93;5.13;;;;;;;13.35;34.96;97897.78;5133984;27;20419;-31
2022/01/29 04:44:03;;;;;;;9.15;5.03;;;;;;;13.26;34.62;97898.28;5134078;27;20031;-31
2022/01/29 04:46:28;;;;;;;10.43;5.57;;;;;;;13.13;34.64;97898.00;5134200;27;20140;-31
2022/01/29 04:48:54;;;;;;;8.93;5.03;;;;;;;13.15;35.03;97898.41;5134105;27;20019;-30
2022/01/29 04:51:20;;;;;;;10.20;5.25;;;;;;;13.14;35.15;97894.13;5133971;27;20091;-31
2022/01/29 04:53:45;;;;;;;10.32;5.03;;;;;;;13.07;34.84;97888.75;5134147;27;20467;-31
2022/01/29 04:56:11;;;;;;;9.40;5.13;;;;;;;13.11;35.09;97884.00;5134057;27;20031;-31
2022/01/29 04:58:36;;;;;;;8.85;5.10;;;;;;;13.17;34.63;97881.66;5133802;27;20015;-31
2022/01/29 05:01:03;;;;;;;9.75;5.30;;;;;;;12.92;34.90;97879.97;5133750;27;20031;-31
2022/01/29 05:03:29;;;;;;;14.05;6.50;;;;;;;13.09;35.08;97874.72;5133672;27;20019;-31
2022/01/29 05:05:55;;;;;;;10.20;5.28;;;;;;;13.02;34.86;97874.81;5133925;27;20118;-32
2022/01/29 05:08:20;;;;;;;8.70;4.90;;;;;;;13.00;35.26;97872.47;5133627;27;20068;-31
2022/01/29 05:10:46;;;;;;;11.30;5.82;;;;;;;12.97;34.91;97870.59;5134129;27;20061;-31
2022/01/29 05:13:15;;;;;;;11.27;5.35;;;;;;;13.07;34.86;97871.63;5115298;27;20405;-31
2022/01/29 05:16:25;;;;;;;10.02;5.53;;;;;;;13.10;34.75;97882.50;5133970;27;20019;-31
2022/01/29 05:26:57;;;;;;;9.75;5.22;;;;;;;13.16;34.77;97874.66;5133511;27;20046;-31
2022/01/29 05:29:26;;;;;;;11.35;5.00;;;;;;;13.02;34.66;97880.25;5133558;27;20079;-31
2022/01/29 05:31:52;;;;;;;12.20;5.75;;;;;;;13.07;34.84;97890.72;5115040;28;20019;-31
2022/01/29 05:34:21;;;;;;;11.23;5.43;;;;;;;13.04;34.79;97895.00;5133558;27;20142;-31
2022/01/29 05:36:48;;;;;;;9.90;5.25;;;;;;;12.93;34.69;97889.69;5133307;27;20049;-31
2022/01/29 05:39:13;;;;;;;8.65;4.88;;;;;;;12.99;34.58;97892.72;5133431;27;20029;-31
2022/01/29 05:41:39;;;;;;;9.13;5.28;;;;;;;12.94;34.39;97880.34;5133192;27;20441;-30
2022/01/29 05:44:05;;;;;;;10.40;5.78;;;;;;;12.93;34.75;97878.03;5136398;27;20021;-31
2022/01/29 05:46:30;;;;;;;9.70;4.90;;;;;;;12.95;34.47;97875.66;5137061;27;20027;-31
2022/01/29 05:48:56;;;;;;;9.15;5.35;;;;;;;12.86;34.37;97876.13;5137050;27;20019;-31
2022/01/29 05:51:21;;;;;;;9.15;5.18;;;;;;;12.93;34.72;97873.34;5126129;27;20051;-31
2022/01/29 05:53:47;;;;;;;8.95;5.07;;;;;;;12.98;34.33;97880.31;5132093;27;20023;-31
2022/01/29 05:56:12;;;;;;;9.30;4.80;;;;;;;13.02;34.47;97886.47;5131235;27;20038;-31
2022/01/29 05:58:38;;;;;;;9.52;5.35;;;;;;;12.99;34.32;97887.28;5114401;28;20023;-31
2022/01/29 06:01:04;;;;;;;9.98;5.47;;;;;;;13.03;34.52;97892.69;5114274;28;20055;-31
2022/01/29 06:03:29;;;;;;;9.05;4.57;;;;;;;12.83;34.51;97885.13;5114167;28;20039;-31
2022/01/29 06:05:55;;;;;;;9.32;5.15;;;;;;;12.98;34.59;97898.59;5114196;28;20019;-31
2022/01/29 06:08:20;;;;;;;8.95;5.07;;;;;;;12.90;34.49;97893.22;5117194;27;20348;-30
2022/01/29 06:10:46;;;;;;;8.27;4.75;;;;;;;12.95;34.65;97895.50;5133197;27;20057;-31
2022/01/29 06:13:14;;;;;;;8.63;5.10;;;;;;;12.95;34.52;97892.78;5134593;27;20027;-31
2022/01/29 06:15:42;;;;;;;10.88;5.85;;;;;;;13.00;34.54;97893.50;5134448;27;20019;-31
2022/01/29 06:18:15;;;;;;;9.50;4.60;;;;;;;13.05;34.45;97896.56;5134482;27;20439;-32
2022/01/29 06:20:41;;;;;;;9.40;5.13;;;;;;;12.87;33.97;97887.78;5134668;27;20428;-31
2022/01/29 06:23:07;;;;;;;7.68;4.50;;;;;;;12.84;34.92;97888.63;5134601;27;20035;-30
2022/01/29 06:25:33;;;;;;;8.95;5.20;;;;;;;12.87;34.87;97883.13;5134551;27;20019;-31
2022/01/29 06:27:58;;;;;;;8.88;4.45;;;;;;;12.92;34.89;97890.88;5133907;27;20053;-31
2022/01/29 06:30:24;;;;;;;10.05;5.13;;;;;;;12.96;34.81;97890.84;5134261;27;20578;-31
2022/01/29 06:32:49;;;;;;;8.32;4.35;;;;;;;13.06;34.41;97897.31;5134386;27;20455;-30
2022/01/29 06:35:15;;;;;;;14.20;4.82;;;;;;;13.10;34.29;97901.56;5134039;27;20023;-31
2022/01/29 06:37:40;;;;;;;9.05;5.03;;;;;;;13.00;34.50;97905.16;5133763;27;20019;-31
2022/01/29 06:40:07;;;;;;;9.90;4.63;;;;;;;12.99;34.56;97906.34;5134140;27;20019;-31
2022/01/29 06:42:33;;;;;;;7.88;4.65;;;;;;;13.04;34.58;97913.28;5134108;27;20030;-31
2022/01/29 06:44:58;;;;;;;8.10;4.60;;;;;;;13.08;34.44;97917.53;5129877;27;20027;-32
2022/01/29 06:47:23;;;;;;;7.95;4.65;;;;;;;12.86;34.53;97918.91;5113425;28;20028;-31
2022/01/29 06:49:49;;;;;;;8.10;4.30;;;;;;;12.95;34.59;97920.00;5113187;28;20019;-32
2022/01/29 06:52:15;;;;;;;7.38;4.40;;;;;;;12.99;34.26;97930.84;5121772;27;20041;-33
2022/01/29 06:54:40;;;;;;;9.05;4.63;;;;;;;11.41;36.77;97931.63;5134782;27;20076;-31
2022/01/29 06:57:06;;;;;;;10.20;5.53;;;;;;;12.02;35.00;97937.53;5135915;27;20048;-32
2022/01/29 06:59:31;;;;;;;10.10;5.60;;;;;;;12.45;34.08;97944.22;5136129;27;20019;-31
2022/01/29 07:01:57;;;;;;;9.55;4.93;;;;;;;12.64;34.05;97942.88;5135816;27;20080;-33
2022/01/29 07:04:22;;;;;;;8.18;4.93;;;;;;;12.75;34.07;97940.03;5135633;27;20099;-31
2022/01/29 07:06:47;;;;;;;9.15;4.38;;;;;;;12.83;34.00;97941.53;5135340;27;20027;-31
2022/01/29 07:09:14;;;;;;;8.80;4.15;;;;;;;12.83;34.22;97961.38;5135789;27;20058;-32
2022/01/29 07:11:43;;;;;;;8.85;4.72;;;;;;;12.93;34.24;97957.75;5135454;27;20015;-32
2022/01/29 07:14:11;;;;;;;9.48;4.00;;;;;;;13.01;34.07;97961.19;5135579;27;20504;-31
2022/01/29 07:16:37;;;;;;;7.93;4.32;;;;;;;12.88;34.03;97968.31;5135202;27;20043;-31
2022/01/29 07:19:03;;;;;;;6.80;4.18;;;;;;;12.92;34.15;97967.09;5135129;27;20046;-32
2022/01/29 07:21:29;;;;;;;10.32;5.13;;;;;;;11.87;35.14;97972.97;5135220;27;20042;-32
2022/01/29 07:23:55;;;;;;;10.43;5.07;;;;;;;12.05;35.25;97966.66;5134776;27;20037;-32
2022/01/29 07:26:20;;;;;;;9.10;5.03;;;;;;;12.37;35.17;97971.84;5135039;27;20023;-33
2022/01/29 07:28:46;;;;;;;9.45;4.60;;;;;;;12.52;34.60;97965.91;5135497;27;20378;-33
2022/01/29 07:31:11;;;;;;;8.90;4.43;;;;;;;12.64;34.56;97958.44;5135201;27;20368;-32
2022/01/29 07:33:36;;;;;;;7.63;4.20;;;;;;;12.73;34.64;97966.91;5117839;27;20030;-32
2022/01/29 07:36:02;;;;;;;9.45;4.20;;;;;;;12.75;34.38;97959.88;5134486;27;20034;-33
2022/01/29 07:38:28;;;;;;;9.82;4.10;;;;;;;12.86;34.29;97965.22;5134147;27;20019;-33
2022/01/29 07:40:53;;;;;;;7.22;3.75;;;;;;;12.94;34.19;97977.59;5134499;27;20431;-32
2022/01/29 07:43:19;;;;;;;7.07;3.75;;;;;;;12.90;34.10;97972.19;5133897;27;20494;-32
2022/01/29 07:45:44;;;;;;;7.93;4.00;;;;;;;12.94;34.04;97978.38;5133884;27;20107;-32
2022/01/29 07:48:10;;;;;;;8.98;3.88;;;;;;;12.95;34.13;97984.59;5133911;27;20463;-34
2022/01/29 07:50:36;;;;;;;8.65;4.05;;;;;;;12.89;34.44;97984.25;5134358;27;20100;-32
2022/01/29 07:53:01;;;;;;;8.32;4.35;;;;;;;12.91;34.17;97983.84;5133252;27;20095;-32
2022/01/29 07:55:29;;;;;;;7.15;3.83;;;;;;;13.07;34.14;97992.25;5134303;27;20042;-33
2022/01/29 07:57:55;;;;;;;6.00;3.42;;;;;;;13.11;34.06;97998.41;5115613;27;20091;-32
2022/01/29 08:00:21;;;;;;;6.47;3.35;;;;;;;13.04;33.87;98003.19;5134150;27;20518;-33
2022/01/29 08:02:46;;;;;;;6.70;3.40;;;;;;;13.05;34.17;98002.78;5132991;27;20467;-32
2022/01/29 08:05:11;;;;;;;6.13;3.58;;;;;;;13.01;34.15;97998.53;5133834;27;20019;-32
2022/01/29 08:07:38;;;;;;;7.60;3.33;;;;;;;13.05;34.33;98000.06;5133075;27;20025;-33
2022/01/29 08:10:05;;;;;;;6.05;3.10;;;;;;;13.05;34.29;98005.50;5133855;27;20027;-32
2022/01/29 08:12:30;;;;;;;5.60;3.25;;;;;;;13.03;34.04;98007.84;5132814;27;20096;-32
2022/01/29 08:14:55;;;;;;;7.10;2.90;;;;;;;13.13;34.21;98008.91;5133884;27;20027;-32
2022/01/29 08:17:21;;;;;;;6.20;3.40;;;;;;;13.11;34.22;98005.81;5133321;27;20019;-32
2022/01/29 08:19:48;;;;;;;6.82;3.40;;;;;;;13.11;34.00;98003.09;5133599;27;20398;-33
2022/01/29 08:22:14;;;;;;;5.72;3.17;;;;;;;13.00;34.21;97997.75;5132578;27;20038;-33
2022/01/29 08:24:39;;;;;;;7.05;3.15;;;;;;;13.12;33.79;98010.88;5133753;27;20109;-32
2022/01/29 08:27:05;;;;;;;6.05;3.00;;;;;;;13.12;34.23;98002.69;5133605;27;20019;-32
2022/01/29 08:29:30;;;;;;;5.18;2.55;;;;;;;13.12;33.95;98010.88;5133664;27;20069;-32
2022/01/29 08:31:56;;;;;;;8.02;3.10;;;;;;;13.12;33.72;98010.88;5132916;28;20026;-33
2022/01/29 08:34:21;;;;;;;6.18;3.15;;;;;;;13.19;33.98;98010.84;5133530;28;20025;-32
2022/01/29 08:36:48;;;;;;;5.32;2.78;;;;;;;13.17;33.65;98005.03;5133594;28;20063;-32
2022/01/29 08:39:14;;;;;;;4.47;2.20;;;;;;;13.27;34.09;98009.56;5133737;28;20030;-32
2022/01/29 08:41:39;;;;;;;4.78;2.85;;;;;;;13.23;33.92;98011.56;5133578;28;20027;-34
2022/01/29 08:44:05;;;;;;;5.35;2.60;;;;;;;13.19;33.67;98021.75;5132808;28;20031;-32
2022/01/29 08:46:30;;;;;;;6.28;2.60;;;;;;;13.28;33.71;98018.53;5133567;28;20034;-32
2022/01/29 08:48:55;;;;;;;6.15;2.38;;;;;;;13.29;33.65;98031.75;5133503;28;20045;-32
2022/01/29 08:51:21;;;;;;;4.25;2.50;;;;;;;13.26;33.71;98032.56;5130329;28;20102;-32
2022/01/29 08:53:46;;;;;;;4.13;2.22;;;;;;;13.35;33.79;98025.88;5110199;28;20039;-34
2022/01/29 08:56:12;;;;;;;4.85;2.50;;;;;;;13.24;33.62;98032.19;5111961;28;20094;-33
2022/01/29 08:58:37;;;;;;;5.30;2.58;;;;;;;13.12;34.07;98038.09;5094503;28;20313;-32
2022/01/29 09:01:07;;;;;;;4.43;2.50;;;;;;;13.13;33.86;98031.47;5112823;28;20042;-32
2022/01/29 09:03:33;;;;;;;7.57;2.78;;;;;;;13.16;34.10;98035.38;5111774;28;20073;-33
2022/01/29 09:05:58;;;;;;;4.00;2.38;;;;;;;13.21;33.84;98030.28;5112773;28;20480;-32
2022/01/29 09:08:23;;;;;;;5.13;2.60;;;;;;;13.19;33.69;98038.09;5112676;28;20118;-32
2022/01/29 09:10:50;;;;;;;6.45;3.35;;;;;;;13.22;33.72;98042.72;5112864;28;20060;-32
2022/01/29 09:13:15;;;;;;;5.72;2.60;;;;;;;13.32;33.54;98040.28;5111420;28;20027;-32
2022/01/29 09:15:41;;;;;;;4.60;2.35;;;;;;;13.11;33.78;98047.44;5112737;28;20020;-32
2022/01/29 09:18:07;;;;;;;3.47;2.28;;;;;;;13.14;33.14;98054.84;5113893;28;20044;-32
2022/01/29 09:20:32;;;;;;;5.03;3.05;;;;;;;13.06;33.28;98060.75;5116605;28;20387;-32
2022/01/29 09:22:58;;;;;;;4.65;2.58;;;;;;;13.11;33.59;98057.56;5115427;28;20036;-32
2022/01/29 09:25:25;;;;;;;4.78;2.65;;;;;;;13.26;32.94;98059.03;5116405;28;20055;-32
2022/01/29 09:27:50;;;;;;;5.15;2.97;;;;;;;12.92;33.33;98061.63;5116296;28;20019;-32
2022/01/29 09:30:16;;;;;;;6.57;2.88;;;;;;;13.09;33.13;98054.50;5116476;28;20024;-32
2022/01/29 09:32:41;;;;;;;6.07;2.72;;;;;;;13.16;33.47;98059.91;5115288;28;20459;-32
2022/01/29 09:35:07;;;;;;;8.43;3.88;;;;;;;13.13;33.03;98066.13;5116428;28;20019;-32
2022/01/29 09:37:33;;;;;;;6.40;3.22;;;;;;;13.26;33.17;98065.25;5116229;28;20032;-32
2022/01/29 09:39:58;;;;;;;6.10;3.10;;;;;;;12.82;33.64;98067.94;5116292;28;20019;-32
2022/01/29 09:42:24;;;;;;;8.20;3.72;;;;;;;12.91;33.80;98076.44;5115175;28;20027;-32
2022/01/29 09:44:52;;;;;;;8.02;3.20;;;;;;;12.97;33.70;98074.84;5116178;28;20098;-32
2022/01/29 09:47:20;;;;;;;5.50;2.92;;;;;;;13.02;33.73;98074.38;5130598;27;20046;-32
2022/01/29 09:49:46;;;;;;;6.35;3.33;;;;;;;13.05;33.27;98075.53;5136769;27;20025;-32
2022/01/29 09:52:11;;;;;;;5.55;3.50;;;;;;;13.05;33.11;98070.88;5129590;27;20110;-33
2022/01/29 09:54:37;;;;;;;8.40;3.60;;;;;;;13.13;33.26;98077.78;5115723;28;20427;-32
2022/01/29 09:57:03;;;;;;;8.75;3.38;;;;;;;13.15;33.31;98080.91;5116033;28;20030;-33
2022/01/29 09:59:29;;;;;;;6.82;3.90;;;;;;;13.12;33.41;98081.69;5116006;28;20036;-32
2022/01/29 10:01:54;;;;;;;7.47;3.58;;;;;;;13.03;33.22;98077.88;5116555;28;20031;-32
2022/01/29 10:04:19;;;;;;;5.43;3.03;;;;;;;12.98;33.24;98081.84;5116236;28;20030;-33
2022/01/29 10:07:05;;;;;;;5.70;2.90;;;;;;;12.99;33.05;98086.06;5116081;28;20469;-32
2022/01/29 10:09:34;;;;;;;5.93;3.33;;;;;;;12.82;32.96;98089.72;5116175;28;20444;-32
2022/01/29 10:12:16;;;;;;;6.85;3.65;;;;;;;12.47;32.86;98080.66;5131062;27;20421;-31
2022/01/29 10:14:56;;;;;;;7.82;4.18;;;;;;;12.81;32.47;98082.72;5134815;27;20031;-31
2022/01/29 10:17:43;;;;;;;6.07;3.90;;;;;;;12.89;32.63;98084.22;5134535;27;20019;-32
2022/01/29 10:20:12;;;;;;;7.30;3.75;;;;;;;12.78;32.09;98083.53;5131794;27;20031;-31
2022/01/29 10:22:38;;;;;;;6.88;3.65;;;;;;;12.77;32.13;98074.59;5131577;27;20723;-32
2022/01/29 10:25:06;;;;;;;5.72;3.28;;;;;;;13.12;31.38;98080.91;5127699;27;20026;-31
2022/01/29 10:27:32;;;;;;;6.13;3.47;;;;;;;12.75;31.13;98081.59;5134214;27;20035;-32
2022/01/29 10:30:02;;;;;;;6.57;3.90;;;;;;;12.98;32.48;98083.78;5133114;27;20608;-31
2022/01/29 10:32:28;;;;;;;5.57;3.13;;;;;;;12.77;31.03;98081.97;5134037;27;20031;-31
2022/01/29 10:34:56;;;;;;;5.00;3.10;;;;;;;12.77;32.18;98077.31;5133684;27;20034;-31
2022/01/29 10:37:26;;;;;;;5.90;3.22;;;;;;;12.85;31.99;98069.88;5113808;28;20098;-31
2022/01/29 10:39:55;;;;;;;7.15;3.65;;;;;;;12.82;31.96;98070.66;5113735;28;20039;-31
2022/01/29 10:42:35;;;;;;;4.40;3.13;;;;;;;12.77;32.09;98076.53;5126675;27;20527;-31
2022/01/29 10:45:05;;;;;;;4.93;3.20;;;;;;;12.44;32.57;98072.50;5115459;27;20402;-31
2022/01/29 10:47:51;;;;;;;6.55;3.05;;;;;;;12.43;31.99;98079.09;5115306;27;20763;-32
2022/01/29 10:50:16;;;;;;;4.20;2.70;;;;;;;12.77;30.43;98073.81;5133642;27;20087;-33
2022/01/29 10:52:42;;;;;;;6.07;2.75;;;;;;;12.93;31.11;98072.13;5133308;27;20030;-33
2022/01/29 10:55:09;;;;;;;4.97;2.80;;;;;;;12.90;31.74;98074.88;5133563;27;20038;-32
2022/01/29 10:57:40;;;;;;;5.82;2.83;;;;;;;12.74;30.93;98055.56;5132755;27;20024;-33
2022/01/29 11:00:09;;;;;;;3.95;2.53;;;;;;;12.92;31.38;98061.63;5133542;27;20034;-32
2022/01/29 11:02:35;;;;;;;4.53;2.53;;;;;;;12.99;32.28;98067.00;5133421;27;20360;-32
2022/01/29 11:05:02;;;;;;;5.50;2.40;;;;;;;12.95;30.79;98055.41;5133777;27;20034;-33
2022/01/29 11:07:30;;;;;;;6.38;2.88;;;;;;;12.77;31.36;98063.69;5133364;27;20109;-32
2022/01/29 11:09:58;;;;;;;4.25;2.70;;;;;;;12.91;31.28;98060.09;5116846;27;20520;-32
2022/01/29 11:12:26;;;;;;;5.05;2.53;;;;;;;13.01;31.18;98059.22;5113080;28;20027;-33
2022/01/29 11:14:55;;;;;;;4.15;2.17;;;;;;;13.05;31.09;98048.31;5113133;28;20456;-32
2022/01/29 11:17:23;;;;;;;3.80;2.42;;;;;;;12.98;29.57;98049.16;5112913;28;20383;-33
2022/01/29 11:19:48;;;;;;;4.40;2.40;;;;;;;12.80;30.73;98043.84;5114210;27;20023;-32
2022/01/29 11:22:19;;;;;;;6.32;2.88;;;;;;;12.97;30.84;98046.81;5124131;27;20486;-32
2022/01/29 11:24:47;;;;;;;3.60;2.25;;;;;;;13.13;31.91;98041.59;5110930;28;20081;-33
2022/01/29 11:27:25;;;;;;;5.45;2.42;;;;;;;13.13;31.42;98045.09;5127062;27;20030;-33
2022/01/29 11:30:14;;;;;;;5.82;2.45;;;;;;;13.02;31.11;98041.72;5133158;27;20090;-32
2022/01/29 11:32:45;;;;;;;3.83;1.90;;;;;;;13.22;31.05;98040.00;5119954;27;20084;-32
2022/01/29 11:35:14;;;;;;;4.13;2.47;;;;;;;13.27;31.04;98028.66;5114347;27;20066;-32
2022/01/29 11:37:57;;;;;;;2.85;2.22;;;;;;;13.33;31.27;98036.38;5132996;27;20123;-32
2022/01/29 11:40:35;;;;;;;4.32;2.10;;;;;;;13.57;31.30;98029.91;5112510;28;20028;-32